sensor_id;sensor_type;location;lat;lon;timestamp;temperature;humidity
30308;DHT22;17114;52.314;8.910;2023-07-31T00:00:01;15.60;99.90
30308;DHT22;17114;52.314;8.910;2023-07-31T00:02:27;15.60;99.90
30308;DHT22;17114;52.314;8.910;2023-07-31T00:04:54;15.60;99.90
30308;DHT22;17114;52.314;8.910;2023-07-31T00:07:22;15.60;99.90
30308;DHT22;17114;52.314;8.910;2023-07-31T00:09:49;15.60;99.90
30308;DHT22;17114;52.314;8.910;2023-07-31T00:12:15;15.60;99.90
30308;DHT22;17114;52.314;8.910;2023-07-31T00:14:43;15.50;99.90
30308;DHT22;17114;52.314;8.910;2023-07-31T00:17:09;15.60;99.90
30308;DHT22;17114;52.314;8.910;2023-07-31T00:19:36;15.60;99.90
30308;DHT22;17114;52.314;8.910;2023-07-31T00:22:03;15.60;99.90
30308;DHT22;17114;52.314;8.910;2023-07-31T00:24:30;15.60;99.90
30308;DHT22;17114;52.314;8.910;2023-07-31T00:26:57;15.60;99.90
30308;DHT22;17114;52.314;8.910;2023-07-31T00:29:24;15.60;99.90
30308;DHT22;17114;52.314;8.910;2023-07-31T00:31:50;15.60;99.90
30308;DHT22;17114;52.314;8.910;2023-07-31T00:34:17;15.60;99.90
30308;DHT22;17114;52.314;8.910;2023-07-31T00:36:44;15.60;99.90
30308;DHT22;17114;52.314;8.910;2023-07-31T00:39:11;15.70;99.90
30308;DHT22;17114;52.314;8.910;2023-07-31T00:41:38;15.70;99.90
30308;DHT22;17114;52.314;8.910;2023-07-31T00:44:04;15.70;99.90
30308;DHT22;17114;52.314;8.910;2023-07-31T00:46:31;15.70;99.90
30308;DHT22;17114;52.314;8.910;2023-07-31T00:48:59;15.70;99.90
30308;DHT22;17114;52.314;8.910;2023-07-31T00:51:26;15.90;99.90
30308;DHT22;17114;52.314;8.910;2023-07-31T00:53:53;15.80;99.90
30308;DHT22;17114;52.314;8.910;2023-07-31T00:56:21;15.80;99.90
30308;DHT22;17114;52.314;8.910;2023-07-31T00:58:48;15.70;99.90
30308;DHT22;17114;52.314;8.910;2023-07-31T01:01:15;15.70;99.90
30308;DHT22;17114;52.314;8.910;2023-07-31T01:03:42;15.80;99.90
30308;DHT22;17114;52.314;8.910;2023-07-31T01:06:18;15.80;99.90
30308;DHT22;17114;52.314;8.910;2023-07-31T01:09:03;15.80;99.90
30308;DHT22;17114;52.314;8.910;2023-07-31T01:11:33;15.80;99.90
30308;DHT22;17114;52.314;8.910;2023-07-31T01:14:01;15.80;99.90
30308;DHT22;17114;52.314;8.910;2023-07-31T01:16:29;15.80;99.90
30308;DHT22;17114;52.314;8.910;2023-07-31T01:18:56;15.80;99.90
30308;DHT22;17114;52.314;8.910;2023-07-31T01:21:55;15.80;99.90
30308;DHT22;17114;52.314;8.910;2023-07-31T01:27:15;15.80;99.90
30308;DHT22;17114;52.314;8.910;2023-07-31T01:29:51;15.80;99.90
30308;DHT22;17114;52.314;8.910;2023-07-31T01:32:22;15.70;99.90
30308;DHT22;17114;52.314;8.910;2023-07-31T01:34:50;15.80;99.90
30308;DHT22;17114;52.314;8.910;2023-07-31T01:37:17;15.70;99.90
30308;DHT22;17114;52.314;8.910;2023-07-31T01:39:44;15.70;99.90
30308;DHT22;17114;52.314;8.910;2023-07-31T01:42:11;15.70;99.90
30308;DHT22;17114;52.314;8.910;2023-07-31T01:44:38;15.80;99.90
30308;DHT22;17114;52.314;8.910;2023-07-31T01:47:05;15.90;99.90
30308;DHT22;17114;52.314;8.910;2023-07-31T01:49:32;15.70;99.90
30308;DHT22;17114;52.314;8.910;2023-07-31T01:51:59;15.70;99.90
30308;DHT22;17114;52.314;8.910;2023-07-31T01:54:25;15.70;99.90
30308;DHT22;17114;52.314;8.910;2023-07-31T01:56:52;15.70;99.90
30308;DHT22;17114;52.314;8.910;2023-07-31T01:59:19;15.70;99.90
30308;DHT22;17114;52.314;8.910;2023-07-31T02:01:46;15.60;99.90
30308;DHT22;17114;52.314;8.910;2023-07-31T02:04:12;15.70;99.90
30308;DHT22;17114;52.314;8.910;2023-07-31T02:06:39;15.60;99.90
30308;DHT22;17114;52.314;8.910;2023-07-31T02:09:07;15.60;99.90
30308;DHT22;17114;52.314;8.910;2023-07-31T02:11:33;15.60;99.90
30308;DHT22;17114;52.314;8.910;2023-07-31T02:14:00;15.60;99.90
30308;DHT22;17114;52.314;8.910;2023-07-31T02:16:27;15.60;99.90
30308;DHT22;17114;52.314;8.910;2023-07-31T02:18:54;15.40;99.90
30308;DHT22;17114;52.314;8.910;2023-07-31T02:21:21;15.70;99.90
30308;DHT22;17114;52.314;8.910;2023-07-31T02:23:47;15.60;99.90
30308;DHT22;17114;52.314;8.910;2023-07-31T02:26:14;15.50;99.90
30308;DHT22;17114;52.314;8.910;2023-07-31T02:28:41;15.50;99.90
30308;DHT22;17114;52.314;8.910;2023-07-31T02:31:09;15.50;99.90
30308;DHT22;17114;52.314;8.910;2023-07-31T02:33:36;15.40;99.90
30308;DHT22;17114;52.314;8.910;2023-07-31T02:36:03;15.40;99.90
30308;DHT22;17114;52.314;8.910;2023-07-31T02:38:30;15.50;99.90
30308;DHT22;17114;52.314;8.910;2023-07-31T02:40:57;15.40;99.90
30308;DHT22;17114;52.314;8.910;2023-07-31T02:43:23;15.40;99.90
30308;DHT22;17114;52.314;8.910;2023-07-31T02:45:53;15.40;99.90
30308;DHT22;17114;52.314;8.910;2023-07-31T02:48:20;15.40;99.90
30308;DHT22;17114;52.314;8.910;2023-07-31T02:50:47;15.40;99.90
30308;DHT22;17114;52.314;8.910;2023-07-31T02:53:14;15.40;99.90
30308;DHT22;17114;52.314;8.910;2023-07-31T02:55:41;15.40;99.90
30308;DHT22;17114;52.314;8.910;2023-07-31T02:58:08;15.30;99.90
30308;DHT22;17114;52.314;8.910;2023-07-31T03:00:35;15.30;99.90
30308;DHT22;17114;52.314;8.910;2023-07-31T03:03:02;15.30;99.90
30308;DHT22;17114;52.314;8.910;2023-07-31T03:05:29;15.30;99.90
30308;DHT22;17114;52.314;8.910;2023-07-31T03:07:55;15.30;99.90
30308;DHT22;17114;52.314;8.910;2023-07-31T03:10:22;15.20;99.90
30308;DHT22;17114;52.314;8.910;2023-07-31T03:12:49;15.30;99.90
30308;DHT22;17114;52.314;8.910;2023-07-31T03:15:16;15.20;99.90
30308;DHT22;17114;52.314;8.910;2023-07-31T03:17:43;15.20;99.90
30308;DHT22;17114;52.314;8.910;2023-07-31T03:20:10;15.20;99.90
30308;DHT22;17114;52.314;8.910;2023-07-31T03:22:37;15.10;99.90
30308;DHT22;17114;52.314;8.910;2023-07-31T03:25:05;15.10;99.90
30308;DHT22;17114;52.314;8.910;2023-07-31T03:27:32;15.10;99.90
30308;DHT22;17114;52.314;8.910;2023-07-31T03:29:59;15.00;99.90
30308;DHT22;17114;52.314;8.910;2023-07-31T03:32:27;15.10;99.90
30308;DHT22;17114;52.314;8.910;2023-07-31T03:34:54;15.00;99.90
30308;DHT22;17114;52.314;8.910;2023-07-31T03:37:21;15.00;99.90
30308;DHT22;17114;52.314;8.910;2023-07-31T03:39:47;15.00;99.90
30308;DHT22;17114;52.314;8.910;2023-07-31T03:42:14;15.00;99.90
30308;DHT22;17114;52.314;8.910;2023-07-31T03:44:41;14.90;99.90
30308;DHT22;17114;52.314;8.910;2023-07-31T03:47:08;15.00;99.90
30308;DHT22;17114;52.314;8.910;2023-07-31T03:49:35;14.90;99.90
30308;DHT22;17114;52.314;8.910;2023-07-31T03:52:02;14.90;99.90
30308;DHT22;17114;52.314;8.910;2023-07-31T03:54:29;14.80;99.90
30308;DHT22;17114;52.314;8.910;2023-07-31T03:56:55;14.80;99.90
30308;DHT22;17114;52.314;8.910;2023-07-31T03:59:22;14.80;99.90
30308;DHT22;17114;52.314;8.910;2023-07-31T04:01:49;14.80;99.90
30308;DHT22;17114;52.314;8.910;2023-07-31T04:04:16;14.70;99.90
30308;DHT22;17114;52.314;8.910;2023-07-31T04:06:42;14.70;99.90
30308;DHT22;17114;52.314;8.910;2023-07-31T04:09:09;14.80;99.90
30308;DHT22;17114;52.314;8.910;2023-07-31T04:11:36;14.80;99.90
30308;DHT22;17114;52.314;8.910;2023-07-31T04:14:03;14.80;99.90
30308;DHT22;17114;52.314;8.910;2023-07-31T04:16:29;14.80;99.90
30308;DHT22;17114;52.314;8.910;2023-07-31T04:18:56;14.60;99.90
30308;DHT22;17114;52.314;8.910;2023-07-31T04:21:23;14.80;99.90
30308;DHT22;17114;52.314;8.910;2023-07-31T04:23:50;14.80;99.90
30308;DHT22;17114;52.314;8.910;2023-07-31T04:26:17;14.80;99.90
30308;DHT22;17114;52.314;8.910;2023-07-31T04:28:44;14.80;99.90
30308;DHT22;17114;52.314;8.910;2023-07-31T04:31:10;14.80;99.90
30308;DHT22;17114;52.314;8.910;2023-07-31T04:33:37;14.90;99.90
30308;DHT22;17114;52.314;8.910;2023-07-31T04:36:05;14.80;99.90
30308;DHT22;17114;52.314;8.910;2023-07-31T04:38:31;14.90;99.90
30308;DHT22;17114;52.314;8.910;2023-07-31T04:40:58;14.90;99.90
30308;DHT22;17114;52.314;8.910;2023-07-31T04:43:25;15.00;99.90
30308;DHT22;17114;52.314;8.910;2023-07-31T04:45:52;15.00;99.90
30308;DHT22;17114;52.314;8.910;2023-07-31T04:48:20;15.00;99.90
30308;DHT22;17114;52.314;8.910;2023-07-31T04:50:47;15.00;99.90
30308;DHT22;17114;52.314;8.910;2023-07-31T04:53:14;15.10;99.90
30308;DHT22;17114;52.314;8.910;2023-07-31T04:55:40;15.10;99.90
30308;DHT22;17114;52.314;8.910;2023-07-31T04:58:07;15.20;99.90
30308;DHT22;17114;52.314;8.910;2023-07-31T05:00:34;15.20;99.90
30308;DHT22;17114;52.314;8.910;2023-07-31T05:03:01;15.30;99.90
30308;DHT22;17114;52.314;8.910;2023-07-31T05:05:28;15.30;99.90
30308;DHT22;17114;52.314;8.910;2023-07-31T05:07:55;15.40;99.90
30308;DHT22;17114;52.314;8.910;2023-07-31T05:10:21;15.50;99.90
30308;DHT22;17114;52.314;8.910;2023-07-31T05:12:48;15.50;99.90
30308;DHT22;17114;52.314;8.910;2023-07-31T05:15:15;15.50;99.90
30308;DHT22;17114;52.314;8.910;2023-07-31T05:17:42;15.50;99.90
30308;DHT22;17114;52.314;8.910;2023-07-31T05:20:09;15.60;99.90
30308;DHT22;17114;52.314;8.910;2023-07-31T05:22:37;15.60;99.90
30308;DHT22;17114;52.314;8.910;2023-07-31T05:25:04;15.60;99.90
30308;DHT22;17114;52.314;8.910;2023-07-31T05:27:31;15.60;99.90
30308;DHT22;17114;52.314;8.910;2023-07-31T05:29:58;15.60;99.90
30308;DHT22;17114;52.314;8.910;2023-07-31T05:32:25;15.60;99.90
30308;DHT22;17114;52.314;8.910;2023-07-31T05:34:52;15.60;99.90
30308;DHT22;17114;52.314;8.910;2023-07-31T05:37:19;15.70;99.90
30308;DHT22;17114;52.314;8.910;2023-07-31T05:39:46;15.70;99.90
30308;DHT22;17114;52.314;8.910;2023-07-31T05:42:13;15.70;99.90
30308;DHT22;17114;52.314;8.910;2023-07-31T05:44:40;15.70;99.90
30308;DHT22;17114;52.314;8.910;2023-07-31T05:47:07;15.70;99.90
30308;DHT22;17114;52.314;8.910;2023-07-31T05:49:34;15.70;99.90
30308;DHT22;17114;52.314;8.910;2023-07-31T05:52:00;15.50;99.90
30308;DHT22;17114;52.314;8.910;2023-07-31T05:54:27;15.60;99.90
30308;DHT22;17114;52.314;8.910;2023-07-31T05:56:54;15.60;99.90
30308;DHT22;17114;52.314;8.910;2023-07-31T05:59:21;15.60;99.90
30308;DHT22;17114;52.314;8.910;2023-07-31T06:01:48;15.60;99.90
30308;DHT22;17114;52.314;8.910;2023-07-31T06:04:14;15.60;99.90
30308;DHT22;17114;52.314;8.910;2023-07-31T06:06:41;15.60;99.90
30308;DHT22;17114;52.314;8.910;2023-07-31T06:09:08;15.60;99.90
30308;DHT22;17114;52.314;8.910;2023-07-31T06:11:35;15.60;99.90
30308;DHT22;17114;52.314;8.910;2023-07-31T06:14:02;15.60;99.90
30308;DHT22;17114;52.314;8.910;2023-07-31T06:16:29;15.60;99.90
30308;DHT22;17114;52.314;8.910;2023-07-31T06:18:56;15.50;99.90
30308;DHT22;17114;52.314;8.910;2023-07-31T06:21:23;15.50;99.90
30308;DHT22;17114;52.314;8.910;2023-07-31T06:23:49;15.50;99.90
30308;DHT22;17114;52.314;8.910;2023-07-31T06:26:16;15.50;99.90
30308;DHT22;17114;52.314;8.910;2023-07-31T06:28:43;15.60;99.90
30308;DHT22;17114;52.314;8.910;2023-07-31T06:31:10;15.60;99.90
30308;DHT22;17114;52.314;8.910;2023-07-31T06:33:37;15.50;99.90
30308;DHT22;17114;52.314;8.910;2023-07-31T06:36:04;15.60;99.90
30308;DHT22;17114;52.314;8.910;2023-07-31T06:38:31;15.60;99.90
30308;DHT22;17114;52.314;8.910;2023-07-31T06:40:57;15.60;99.90
30308;DHT22;17114;52.314;8.910;2023-07-31T06:43:24;15.70;99.90
30308;DHT22;17114;52.314;8.910;2023-07-31T06:45:54;15.60;99.90
30308;DHT22;17114;52.314;8.910;2023-07-31T06:48:21;15.60;99.90
30308;DHT22;17114;52.314;8.910;2023-07-31T06:50:48;15.60;99.90
30308;DHT22;17114;52.314;8.910;2023-07-31T06:53:15;15.70;99.90
30308;DHT22;17114;52.314;8.910;2023-07-31T06:55:42;15.70;99.90
30308;DHT22;17114;52.314;8.910;2023-07-31T06:58:08;15.90;99.90
30308;DHT22;17114;52.314;8.910;2023-07-31T07:00:35;15.80;99.90
30308;DHT22;17114;52.314;8.910;2023-07-31T07:03:02;15.90;99.90
30308;DHT22;17114;52.314;8.910;2023-07-31T07:05:29;15.90;99.90
30308;DHT22;17114;52.314;8.910;2023-07-31T07:07:56;15.90;99.90
30308;DHT22;17114;52.314;8.910;2023-07-31T07:10:23;15.90;99.90
30308;DHT22;17114;52.314;8.910;2023-07-31T07:12:50;16.00;99.90
30308;DHT22;17114;52.314;8.910;2023-07-31T07:15:17;16.00;99.90
30308;DHT22;17114;52.314;8.910;2023-07-31T07:17:44;16.10;99.90
30308;DHT22;17114;52.314;8.910;2023-07-31T07:20:11;16.20;99.90
30308;DHT22;17114;52.314;8.910;2023-07-31T07:22:38;16.30;99.90
30308;DHT22;17114;52.314;8.910;2023-07-31T07:25:05;16.20;99.90
30308;DHT22;17114;52.314;8.910;2023-07-31T07:27:33;16.20;99.90
30308;DHT22;17114;52.314;8.910;2023-07-31T07:30:00;16.30;99.90
30308;DHT22;17114;52.314;8.910;2023-07-31T07:32:27;16.50;99.90
30308;DHT22;17114;52.314;8.910;2023-07-31T07:34:55;16.50;99.90
30308;DHT22;17114;52.314;8.910;2023-07-31T07:37:22;16.60;99.90
30308;DHT22;17114;52.314;8.910;2023-07-31T07:39:49;16.60;99.90
30308;DHT22;17114;52.314;8.910;2023-07-31T07:42:16;16.70;99.90
30308;DHT22;17114;52.314;8.910;2023-07-31T07:44:43;16.70;99.90
30308;DHT22;17114;52.314;8.910;2023-07-31T07:47:10;16.70;99.90
30308;DHT22;17114;52.314;8.910;2023-07-31T07:49:37;16.90;99.90
30308;DHT22;17114;52.314;8.910;2023-07-31T07:52:05;17.10;99.90
30308;DHT22;17114;52.314;8.910;2023-07-31T07:54:32;17.20;99.90
30308;DHT22;17114;52.314;8.910;2023-07-31T07:56:59;17.20;99.90
30308;DHT22;17114;52.314;8.910;2023-07-31T07:59:26;17.10;99.90
30308;DHT22;17114;52.314;8.910;2023-07-31T08:01:53;17.00;99.90
30308;DHT22;17114;52.314;8.910;2023-07-31T08:04:20;17.00;99.90
30308;DHT22;17114;52.314;8.910;2023-07-31T08:06:47;16.90;99.90
30308;DHT22;17114;52.314;8.910;2023-07-31T08:09:14;16.80;99.90
30308;DHT22;17114;52.314;8.910;2023-07-31T08:11:41;16.80;99.90
30308;DHT22;17114;52.314;8.910;2023-07-31T08:14:08;16.70;99.90
30308;DHT22;17114;52.314;8.910;2023-07-31T08:16:35;16.70;99.90
30308;DHT22;17114;52.314;8.910;2023-07-31T08:19:02;16.70;99.90
30308;DHT22;17114;52.314;8.910;2023-07-31T08:21:29;16.70;99.90
30308;DHT22;17114;52.314;8.910;2023-07-31T08:23:56;16.60;99.90
30308;DHT22;17114;52.314;8.910;2023-07-31T08:26:23;16.60;99.90
30308;DHT22;17114;52.314;8.910;2023-07-31T08:28:50;16.60;99.90
30308;DHT22;17114;52.314;8.910;2023-07-31T08:31:17;16.60;99.90
30308;DHT22;17114;52.314;8.910;2023-07-31T08:33:45;16.70;99.90
30308;DHT22;17114;52.314;8.910;2023-07-31T08:36:11;16.70;99.90
30308;DHT22;17114;52.314;8.910;2023-07-31T08:38:38;16.90;99.90
30308;DHT22;17114;52.314;8.910;2023-07-31T08:41:05;16.90;99.90
30308;DHT22;17114;52.314;8.910;2023-07-31T08:43:32;17.10;99.90
30308;DHT22;17114;52.314;8.910;2023-07-31T08:45:59;17.10;99.90
30308;DHT22;17114;52.314;8.910;2023-07-31T08:48:28;17.20;99.90
30308;DHT22;17114;52.314;8.910;2023-07-31T08:50:55;17.20;99.90
30308;DHT22;17114;52.314;8.910;2023-07-31T08:53:22;17.10;99.90
30308;DHT22;17114;52.314;8.910;2023-07-31T08:55:50;17.10;99.90
30308;DHT22;17114;52.314;8.910;2023-07-31T08:58:19;17.10;99.90
30308;DHT22;17114;52.314;8.910;2023-07-31T09:00:46;17.10;99.90
30308;DHT22;17114;52.314;8.910;2023-07-31T09:03:15;17.10;99.90
30308;DHT22;17114;52.314;8.910;2023-07-31T09:05:44;17.10;99.90
30308;DHT22;17114;52.314;8.910;2023-07-31T09:08:18;17.10;99.90
30308;DHT22;17114;52.314;8.910;2023-07-31T09:10:46;17.10;99.90
30308;DHT22;17114;52.314;8.910;2023-07-31T09:13:14;17.20;99.90
30308;DHT22;17114;52.314;8.910;2023-07-31T09:15:44;17.20;99.90
30308;DHT22;17114;52.314;8.910;2023-07-31T09:18:11;17.30;99.90
30308;DHT22;17114;52.314;8.910;2023-07-31T09:20:38;17.40;99.90
30308;DHT22;17114;52.314;8.910;2023-07-31T09:23:08;17.40;99.90
30308;DHT22;17114;52.314;8.910;2023-07-31T09:25:35;17.40;99.90
30308;DHT22;17114;52.314;8.910;2023-07-31T09:28:10;17.40;99.90
30308;DHT22;17114;52.314;8.910;2023-07-31T09:30:51;17.50;99.90
30308;DHT22;17114;52.314;8.910;2023-07-31T09:33:18;17.50;99.90
30308;DHT22;17114;52.314;8.910;2023-07-31T09:35:47;17.60;99.90
30308;DHT22;17114;52.314;8.910;2023-07-31T09:38:15;17.70;99.90
30308;DHT22;17114;52.314;8.910;2023-07-31T09:40:44;17.80;99.90
30308;DHT22;17114;52.314;8.910;2023-07-31T09:43:21;17.90;99.90
30308;DHT22;17114;52.314;8.910;2023-07-31T09:45:55;17.90;99.90
30308;DHT22;17114;52.314;8.910;2023-07-31T09:48:23;17.90;99.90
30308;DHT22;17114;52.314;8.910;2023-07-31T09:50:53;18.00;99.90
30308;DHT22;17114;52.314;8.910;2023-07-31T09:53:28;18.10;99.90
30308;DHT22;17114;52.314;8.910;2023-07-31T09:55:58;18.10;99.90
30308;DHT22;17114;52.314;8.910;2023-07-31T09:58:28;18.00;99.90
30308;DHT22;17114;52.314;8.910;2023-07-31T10:00:57;17.90;99.90
30308;DHT22;17114;52.314;8.910;2023-07-31T10:03:25;18.00;99.90
30308;DHT22;17114;52.314;8.910;2023-07-31T10:05:55;18.00;99.90
30308;DHT22;17114;52.314;8.910;2023-07-31T10:08:27;18.00;99.90
30308;DHT22;17114;52.314;8.910;2023-07-31T10:10:59;18.00;99.90
30308;DHT22;17114;52.314;8.910;2023-07-31T10:13:27;18.00;99.90
30308;DHT22;17114;52.314;8.910;2023-07-31T10:15:59;18.00;99.90
30308;DHT22;17114;52.314;8.910;2023-07-31T10:18:27;17.90;99.90
30308;DHT22;17114;52.314;8.910;2023-07-31T10:20:55;17.90;99.90
30308;DHT22;17114;52.314;8.910;2023-07-31T10:23:23;17.90;99.90
30308;DHT22;17114;52.314;8.910;2023-07-31T10:25:53;18.00;99.90
30308;DHT22;17114;52.314;8.910;2023-07-31T10:28:21;18.00;99.90
30308;DHT22;17114;52.314;8.910;2023-07-31T10:30:49;18.10;99.90
30308;DHT22;17114;52.314;8.910;2023-07-31T10:33:16;18.10;99.90
30308;DHT22;17114;52.314;8.910;2023-07-31T10:35:44;18.20;99.90
30308;DHT22;17114;52.314;8.910;2023-07-31T10:38:12;18.20;99.90
30308;DHT22;17114;52.314;8.910;2023-07-31T10:40:39;18.20;99.90
30308;DHT22;17114;52.314;8.910;2023-07-31T10:43:06;18.20;99.90
30308;DHT22;17114;52.314;8.910;2023-07-31T10:45:39;18.30;99.90
30308;DHT22;17114;52.314;8.910;2023-07-31T10:48:16;18.20;99.90
30308;DHT22;17114;52.314;8.910;2023-07-31T10:50:51;18.10;99.90
30308;DHT22;17114;52.314;8.910;2023-07-31T10:53:31;18.10;99.90
30308;DHT22;17114;52.314;8.910;2023-07-31T10:56:06;18.10;99.90
30308;DHT22;17114;52.314;8.910;2023-07-31T10:58:34;18.20;99.90
30308;DHT22;17114;52.314;8.910;2023-07-31T11:01:03;18.30;99.90
30308;DHT22;17114;52.314;8.910;2023-07-31T11:03:48;18.20;99.90
30308;DHT22;17114;52.314;8.910;2023-07-31T11:06:16;18.20;99.90
30308;DHT22;17114;52.314;8.910;2023-07-31T11:08:48;18.30;99.90
30308;DHT22;17114;52.314;8.910;2023-07-31T11:11:19;18.30;99.90
30308;DHT22;17114;52.314;8.910;2023-07-31T11:13:48;18.30;99.90
30308;DHT22;17114;52.314;8.910;2023-07-31T11:16:24;18.30;99.90
30308;DHT22;17114;52.314;8.910;2023-07-31T11:18:52;18.30;99.90
30308;DHT22;17114;52.314;8.910;2023-07-31T11:21:22;18.20;99.90
30308;DHT22;17114;52.314;8.910;2023-07-31T11:23:51;18.20;99.90
30308;DHT22;17114;52.314;8.910;2023-07-31T11:26:18;18.20;99.90
30308;DHT22;17114;52.314;8.910;2023-07-31T11:28:50;18.10;99.90
30308;DHT22;17114;52.314;8.910;2023-07-31T11:31:17;18.10;99.90
30308;DHT22;17114;52.314;8.910;2023-07-31T11:33:45;18.10;99.90
30308;DHT22;17114;52.314;8.910;2023-07-31T11:36:16;18.10;99.90
30308;DHT22;17114;52.314;8.910;2023-07-31T11:38:43;18.20;99.90
30308;DHT22;17114;52.314;8.910;2023-07-31T11:41:10;18.30;99.90
30308;DHT22;17114;52.314;8.910;2023-07-31T11:43:40;18.40;99.90
30308;DHT22;17114;52.314;8.910;2023-07-31T11:46:07;18.50;99.90
30308;DHT22;17114;52.314;8.910;2023-07-31T11:48:36;18.40;99.90
30308;DHT22;17114;52.314;8.910;2023-07-31T11:51:06;18.30;99.90
30308;DHT22;17114;52.314;8.910;2023-07-31T11:53:40;18.30;99.90
30308;DHT22;17114;52.314;8.910;2023-07-31T11:56:11;18.30;99.90
30308;DHT22;17114;52.314;8.910;2023-07-31T11:58:40;18.40;99.90
30308;DHT22;17114;52.314;8.910;2023-07-31T12:01:08;18.50;99.90
30308;DHT22;17114;52.314;8.910;2023-07-31T12:03:35;18.50;99.90
30308;DHT22;17114;52.314;8.910;2023-07-31T12:06:02;18.40;99.90
30308;DHT22;17114;52.314;8.910;2023-07-31T12:08:29;18.50;99.90
30308;DHT22;17114;52.314;8.910;2023-07-31T12:11:03;18.50;99.90
30308;DHT22;17114;52.314;8.910;2023-07-31T12:13:31;18.50;99.90
30308;DHT22;17114;52.314;8.910;2023-07-31T12:16:02;18.50;99.90
30308;DHT22;17114;52.314;8.910;2023-07-31T12:18:39;18.60;99.90
30308;DHT22;17114;52.314;8.910;2023-07-31T12:21:08;18.70;99.90
30308;DHT22;17114;52.314;8.910;2023-07-31T12:23:38;18.90;99.90
30308;DHT22;17114;52.314;8.910;2023-07-31T12:26:15;19.00;99.90
30308;DHT22;17114;52.314;8.910;2023-07-31T12:28:50;19.10;99.90
30308;DHT22;17114;52.314;8.910;2023-07-31T12:31:23;19.10;99.90
30308;DHT22;17114;52.314;8.910;2023-07-31T12:33:51;19.20;99.90
30308;DHT22;17114;52.314;8.910;2023-07-31T12:36:23;19.10;99.90
30308;DHT22;17114;52.314;8.910;2023-07-31T12:38:51;19.20;99.90
30308;DHT22;17114;52.314;8.910;2023-07-31T12:41:18;19.00;99.90
30308;DHT22;17114;52.314;8.910;2023-07-31T12:43:45;19.00;99.90
30308;DHT22;17114;52.314;8.910;2023-07-31T12:46:13;19.10;99.90
30308;DHT22;17114;52.314;8.910;2023-07-31T12:48:40;19.00;99.90
30308;DHT22;17114;52.314;8.910;2023-07-31T12:51:07;19.00;99.90
30308;DHT22;17114;52.314;8.910;2023-07-31T12:53:35;19.00;99.90
30308;DHT22;17114;52.314;8.910;2023-07-31T12:56:02;19.00;99.90
30308;DHT22;17114;52.314;8.910;2023-07-31T12:58:29;19.10;99.90
30308;DHT22;17114;52.314;8.910;2023-07-31T13:00:56;19.10;99.90
30308;DHT22;17114;52.314;8.910;2023-07-31T13:03:23;19.00;99.90
30308;DHT22;17114;52.314;8.910;2023-07-31T13:05:50;19.00;99.90
30308;DHT22;17114;52.314;8.910;2023-07-31T13:08:18;19.00;99.90
30308;DHT22;17114;52.314;8.910;2023-07-31T13:10:45;19.00;99.90
30308;DHT22;17114;52.314;8.910;2023-07-31T13:13:12;19.00;99.90
30308;DHT22;17114;52.314;8.910;2023-07-31T13:15:39;19.10;99.90
30308;DHT22;17114;52.314;8.910;2023-07-31T13:18:06;19.00;99.90
30308;DHT22;17114;52.314;8.910;2023-07-31T13:20:34;19.00;99.90
30308;DHT22;17114;52.314;8.910;2023-07-31T13:23:01;19.00;99.90
30308;DHT22;17114;52.314;8.910;2023-07-31T13:25:28;19.00;99.90
30308;DHT22;17114;52.314;8.910;2023-07-31T13:27:55;18.80;99.90
30308;DHT22;17114;52.314;8.910;2023-07-31T13:30:24;18.80;99.90
30308;DHT22;17114;52.314;8.910;2023-07-31T13:32:52;18.70;99.90
30308;DHT22;17114;52.314;8.910;2023-07-31T13:35:20;18.60;99.90
30308;DHT22;17114;52.314;8.910;2023-07-31T13:37:46;18.50;99.90
30308;DHT22;17114;52.314;8.910;2023-07-31T13:40:13;18.50;99.90
30308;DHT22;17114;52.314;8.910;2023-07-31T13:42:40;18.60;99.90
30308;DHT22;17114;52.314;8.910;2023-07-31T13:45:07;18.60;99.90
30308;DHT22;17114;52.314;8.910;2023-07-31T13:47:34;18.50;99.90
30308;DHT22;17114;52.314;8.910;2023-07-31T13:50:01;18.50;99.90
30308;DHT22;17114;52.314;8.910;2023-07-31T13:52:28;18.50;99.90
30308;DHT22;17114;52.314;8.910;2023-07-31T13:54:55;18.40;99.90
30308;DHT22;17114;52.314;8.910;2023-07-31T13:57:22;18.30;99.90
30308;DHT22;17114;52.314;8.910;2023-07-31T13:59:50;18.30;99.90
30308;DHT22;17114;52.314;8.910;2023-07-31T14:02:17;18.30;99.90
30308;DHT22;17114;52.314;8.910;2023-07-31T14:04:44;18.30;99.90
30308;DHT22;17114;52.314;8.910;2023-07-31T14:07:11;18.30;99.90
30308;DHT22;17114;52.314;8.910;2023-07-31T14:09:38;18.30;99.90
30308;DHT22;17114;52.314;8.910;2023-07-31T14:12:05;18.40;99.90
30308;DHT22;17114;52.314;8.910;2023-07-31T14:14:32;18.50;99.90
30308;DHT22;17114;52.314;8.910;2023-07-31T14:17:01;18.50;99.90
30308;DHT22;17114;52.314;8.910;2023-07-31T14:19:28;18.60;99.90
30308;DHT22;17114;52.314;8.910;2023-07-31T14:21:58;18.90;99.90
30308;DHT22;17114;52.314;8.910;2023-07-31T14:24:37;19.20;99.90
30308;DHT22;17114;52.314;8.910;2023-07-31T14:27:04;19.40;99.90
30308;DHT22;17114;52.314;8.910;2023-07-31T14:29:31;19.60;99.90
30308;DHT22;17114;52.314;8.910;2023-07-31T14:31:58;19.70;99.90
30308;DHT22;17114;52.314;8.910;2023-07-31T14:34:26;19.90;99.90
30308;DHT22;17114;52.314;8.910;2023-07-31T14:36:53;20.10;99.90
30308;DHT22;17114;52.314;8.910;2023-07-31T14:39:20;20.20;99.90
30308;DHT22;17114;52.314;8.910;2023-07-31T14:41:47;20.20;99.90
30308;DHT22;17114;52.314;8.910;2023-07-31T14:44:14;20.20;99.90
30308;DHT22;17114;52.314;8.910;2023-07-31T14:46:41;20.00;99.90
30308;DHT22;17114;52.314;8.910;2023-07-31T14:49:09;19.90;99.90
30308;DHT22;17114;52.314;8.910;2023-07-31T14:51:35;19.70;99.90
30308;DHT22;17114;52.314;8.910;2023-07-31T14:54:02;19.40;99.90
30308;DHT22;17114;52.314;8.910;2023-07-31T14:56:29;19.20;99.90
30308;DHT22;17114;52.314;8.910;2023-07-31T14:58:57;19.10;99.90
30308;DHT22;17114;52.314;8.910;2023-07-31T15:01:23;19.00;99.90
30308;DHT22;17114;52.314;8.910;2023-07-31T15:03:51;18.80;99.90
30308;DHT22;17114;52.314;8.910;2023-07-31T15:06:17;18.70;99.90
30308;DHT22;17114;52.314;8.910;2023-07-31T15:08:44;18.60;99.90
30308;DHT22;17114;52.314;8.910;2023-07-31T15:11:12;18.60;99.90
30308;DHT22;17114;52.314;8.910;2023-07-31T15:13:39;18.60;99.90
30308;DHT22;17114;52.314;8.910;2023-07-31T15:16:06;18.60;99.90
30308;DHT22;17114;52.314;8.910;2023-07-31T15:18:34;18.70;99.90
30308;DHT22;17114;52.314;8.910;2023-07-31T15:21:01;18.80;99.90
30308;DHT22;17114;52.314;8.910;2023-07-31T15:23:27;19.00;99.90
30308;DHT22;17114;52.314;8.910;2023-07-31T15:25:54;19.20;99.90
30308;DHT22;17114;52.314;8.910;2023-07-31T15:28:21;19.30;99.90
30308;DHT22;17114;52.314;8.910;2023-07-31T15:30:48;19.50;99.90
30308;DHT22;17114;52.314;8.910;2023-07-31T15:33:15;19.50;99.90
30308;DHT22;17114;52.314;8.910;2023-07-31T15:35:42;19.60;99.90